createdAt,value
2023-05-23T00:00:21.333Z,0.00
2023-05-23T00:01:21.331Z,0.00
2023-05-23T00:02:21.343Z,0.00
2023-05-23T00:03:21.408Z,0.00
2023-05-23T00:04:21.253Z,0.00
2023-05-23T00:05:21.132Z,0.00
2023-05-23T00:06:21.083Z,0.00
2023-05-23T00:07:21.094Z,0.00
2023-05-23T00:08:20.996Z,0.00
2023-05-23T00:09:20.972Z,0.00
2023-05-23T00:10:20.918Z,0.00
2023-05-23T00:11:20.874Z,0.00
2023-05-23T00:12:20.838Z,0.00
2023-05-23T00:13:20.821Z,0.00
2023-05-23T00:14:20.785Z,0.00
2023-05-23T00:15:20.719Z,0.00
2023-05-23T00:16:20.729Z,0.00
2023-05-23T00:17:20.644Z,0.00
2023-05-23T00:18:20.627Z,0.00
2023-05-23T00:19:20.601Z,0.00
2023-05-23T00:20:20.531Z,0.00
2023-05-23T00:21:20.468Z,0.00
2023-05-23T00:22:20.432Z,0.00
2023-05-23T00:23:20.388Z,0.00
2023-05-23T00:24:20.345Z,0.00
2023-05-23T00:25:20.338Z,0.00
2023-05-23T00:26:20.268Z,0.00
2023-05-23T00:27:20.238Z,0.00
2023-05-23T00:28:20.184Z,0.00
2023-05-23T00:29:20.172Z,0.00
2023-05-23T00:30:20.097Z,0.00
2023-05-23T00:31:20.097Z,0.00
2023-05-23T00:32:20.064Z,0.00
2023-05-23T00:33:20.001Z,0.00
2023-05-23T00:34:19.941Z,0.00
2023-05-23T00:35:19.895Z,0.00
2023-05-23T00:36:19.853Z,0.00
2023-05-23T00:37:19.820Z,0.00
2023-05-23T00:38:19.806Z,0.00
2023-05-23T00:39:20.352Z,0.00
2023-05-23T00:40:19.702Z,0.00
2023-05-23T00:41:19.696Z,0.00
2023-05-23T00:42:19.637Z,0.00
2023-05-23T00:43:19.576Z,0.00
2023-05-23T00:44:19.543Z,0.00
2023-05-23T00:45:19.517Z,0.00
2023-05-23T00:46:19.485Z,0.00
2023-05-23T00:47:19.430Z,0.00
2023-05-23T00:48:19.377Z,0.00
2023-05-23T00:49:19.331Z,0.00
2023-05-23T00:50:19.430Z,0.00
2023-05-23T00:51:19.256Z,0.00
2023-05-23T00:52:19.208Z,0.00
2023-05-23T00:53:19.155Z,0.00
2023-05-23T00:54:19.110Z,0.00
2023-05-23T00:55:19.082Z,0.00
2023-05-23T00:56:19.216Z,0.00
2023-05-23T00:57:18.992Z,0.00
2023-05-23T00:58:18.952Z,0.00
2023-05-23T00:59:18.907Z,0.00
2023-05-23T01:00:18.870Z,0.00
2023-05-23T01:01:18.840Z,0.00
2023-05-23T01:02:18.821Z,0.00
2023-05-23T01:03:18.895Z,0.00
2023-05-23T01:04:18.701Z,0.00
2023-05-23T01:05:18.663Z,0.00
2023-05-23T01:06:18.616Z,0.00
2023-05-23T01:07:18.577Z,0.00
2023-05-23T01:08:18.558Z,0.00
2023-05-23T01:09:18.512Z,0.00
2023-05-23T01:10:18.457Z,0.00
2023-05-23T01:11:18.408Z,0.00
2023-05-23T01:12:18.366Z,0.00
2023-05-23T01:13:18.337Z,0.00
2023-05-23T01:14:18.310Z,0.00
2023-05-23T01:15:18.249Z,0.00
2023-05-23T01:16:18.239Z,0.00
2023-05-23T01:17:18.162Z,0.00
2023-05-23T01:18:18.324Z,0.00
2023-05-23T01:19:18.086Z,0.00
2023-05-23T01:20:18.034Z,0.00
2023-05-23T01:21:17.992Z,0.00
2023-05-23T01:22:17.958Z,0.00
2023-05-23T01:23:17.912Z,0.00
2023-05-23T01:24:17.913Z,0.00
2023-05-23T01:25:17.834Z,0.00
2023-05-23T01:26:17.798Z,0.00
2023-05-23T01:27:17.743Z,0.00
2023-05-23T01:28:17.708Z,0.00
2023-05-23T01:29:17.665Z,0.00
2023-05-23T01:30:17.635Z,0.00
2023-05-23T01:31:17.614Z,0.00
2023-05-23T01:32:17.531Z,0.00
2023-05-23T01:33:17.498Z,0.00
2023-05-23T01:34:17.453Z,0.00
2023-05-23T01:35:17.411Z,0.00
2023-05-23T01:36:17.407Z,0.00
2023-05-23T01:37:17.334Z,0.00
2023-05-23T01:38:17.289Z,0.00
2023-05-23T01:39:17.258Z,0.00
2023-05-23T01:40:17.202Z,0.00
2023-05-23T01:41:17.165Z,0.00
2023-05-23T01:42:17.158Z,0.00
2023-05-23T01:43:17.091Z,0.00
2023-05-23T01:44:18.137Z,0.00
2023-05-23T01:45:16.997Z,0.00
2023-05-23T01:46:16.993Z,0.00
2023-05-23T01:47:16.933Z,0.00
2023-05-23T01:48:16.905Z,0.00
2023-05-23T01:49:16.869Z,0.00
2023-05-23T01:50:16.799Z,0.00
2023-05-23T01:51:16.754Z,0.00
2023-05-23T01:52:16.706Z,0.00
2023-05-23T01:53:16.691Z,0.00
2023-05-23T01:54:16.668Z,0.00
2023-05-23T01:55:16.581Z,0.00
2023-05-23T01:56:16.539Z,0.00
2023-05-23T01:57:16.499Z,0.00
2023-05-23T01:58:16.458Z,0.00
2023-05-23T01:59:16.414Z,0.00
2023-05-23T02:00:16.451Z,0.00
2023-05-23T02:01:16.362Z,0.00
2023-05-23T02:02:16.309Z,0.00
2023-05-23T02:03:16.488Z,0.00
2023-05-23T02:04:16.386Z,0.00
2023-05-23T02:05:16.171Z,0.00
2023-05-23T02:06:16.134Z,0.00
2023-05-23T02:07:16.084Z,0.00
2023-05-23T02:08:16.041Z,0.00
2023-05-23T02:09:16.009Z,0.00
2023-05-23T02:10:15.984Z,0.00
2023-05-23T02:11:15.916Z,0.00
2023-05-23T02:12:15.871Z,0.00
2023-05-23T02:13:15.841Z,0.00
2023-05-23T02:14:15.801Z,0.00
2023-05-23T02:15:15.750Z,0.00
2023-05-23T02:16:15.707Z,0.00
2023-05-23T02:17:15.706Z,0.00
2023-05-23T02:18:15.619Z,0.00
2023-05-23T02:19:15.610Z,0.00
2023-05-23T02:20:15.544Z,0.00
2023-05-23T02:21:15.516Z,0.00
2023-05-23T02:22:15.453Z,0.00
2023-05-23T02:23:15.416Z,0.00
2023-05-23T02:24:15.380Z,0.00
2023-05-23T02:25:15.337Z,0.00
2023-05-23T02:26:15.302Z,0.00
2023-05-23T02:27:15.246Z,0.00
2023-05-23T02:28:15.208Z,0.00
2023-05-23T02:29:15.171Z,0.00
2023-05-23T02:30:15.123Z,0.00
2023-05-23T02:31:15.096Z,0.00
2023-05-23T02:32:15.051Z,0.00
2023-05-23T02:33:15.040Z,0.00
2023-05-23T02:34:14.955Z,0.00
2023-05-23T02:35:14.911Z,0.00
2023-05-23T02:36:14.889Z,0.00
2023-05-23T02:37:14.865Z,0.00
2023-05-23T02:38:14.805Z,0.00
2023-05-23T02:39:14.771Z,0.00
2023-05-23T02:40:14.703Z,0.00
2023-05-23T02:41:14.663Z,0.00
2023-05-23T02:42:14.635Z,0.00
2023-05-23T02:43:14.592Z,0.00
2023-05-23T02:44:14.538Z,0.00
2023-05-23T02:45:14.529Z,0.00
2023-05-23T02:46:14.534Z,0.00
2023-05-23T02:47:14.412Z,0.00
2023-05-23T02:48:14.361Z,0.00
2023-05-23T02:49:14.330Z,0.00
2023-05-23T02:50:14.316Z,0.00
2023-05-23T02:51:14.250Z,0.00
2023-05-23T02:52:14.218Z,0.00
2023-05-23T02:53:14.166Z,0.00
2023-05-23T02:54:14.133Z,0.00
2023-05-23T02:55:14.123Z,0.00
2023-05-23T02:56:14.035Z,0.00
2023-05-23T02:57:13.997Z,0.00
2023-05-23T02:58:13.976Z,0.00
2023-05-23T02:59:13.922Z,0.00
2023-05-23T03:00:13.879Z,0.00
2023-05-23T03:01:13.955Z,0.00
2023-05-23T03:02:13.838Z,0.00
2023-05-23T03:03:13.853Z,0.00
2023-05-23T03:04:13.729Z,0.00
2023-05-23T03:05:13.663Z,0.00
2023-05-23T03:06:13.646Z,0.00
2023-05-23T03:07:26.905Z,0.00
2023-05-23T03:08:13.530Z,0.00
2023-05-23T03:09:13.496Z,0.00
2023-05-23T03:10:13.479Z,0.00
2023-05-23T03:11:13.419Z,0.00
2023-05-23T03:12:13.394Z,0.00
2023-05-23T03:13:13.355Z,0.00
2023-05-23T03:14:13.296Z,0.00
2023-05-23T03:15:13.254Z,0.00
2023-05-23T03:16:13.305Z,0.00
2023-05-23T03:17:13.162Z,0.00
2023-05-23T03:18:13.124Z,0.00
2023-05-23T03:19:13.272Z,0.00
2023-05-23T03:20:13.037Z,0.00
2023-05-23T03:21:12.996Z,0.00
2023-05-23T03:22:12.960Z,0.00
2023-05-23T03:23:12.916Z,0.00
2023-05-23T03:24:12.881Z,0.00
2023-05-23T03:25:12.860Z,0.00
2023-05-23T03:26:12.795Z,0.00
2023-05-23T03:27:12.753Z,0.00
2023-05-23T03:28:12.729Z,0.00
2023-05-23T03:29:12.665Z,0.00
2023-05-23T03:30:12.617Z,0.00
2023-05-23T03:31:12.578Z,0.00
2023-05-23T03:32:12.621Z,0.00
2023-05-23T03:33:12.494Z,0.00
2023-05-23T03:34:12.475Z,0.00
2023-05-23T03:35:12.476Z,0.00
2023-05-23T03:36:12.383Z,0.00
2023-05-23T03:37:12.343Z,0.00
2023-05-23T03:38:12.320Z,5.63
2023-05-23T03:39:12.246Z,5.63
2023-05-23T03:40:12.213Z,5.63
2023-05-23T03:41:12.168Z,5.63
2023-05-23T03:42:12.123Z,5.63
2023-05-23T03:43:12.105Z,5.63
2023-05-23T03:44:12.040Z,5.63
2023-05-23T03:45:11.998Z,11.25
2023-05-23T03:46:11.977Z,11.25
2023-05-23T03:47:11.916Z,11.25
2023-05-23T03:48:11.873Z,11.25
2023-05-23T03:49:11.846Z,11.25
2023-05-23T03:50:11.809Z,16.88
2023-05-23T03:51:11.745Z,16.88
2023-05-23T03:52:11.701Z,16.88
2023-05-23T03:53:11.662Z,16.88
2023-05-23T03:54:11.622Z,22.50
2023-05-23T03:55:11.585Z,22.50
2023-05-23T03:56:11.567Z,22.50
2023-05-23T03:57:11.496Z,28.13
2023-05-23T03:58:11.492Z,28.13
2023-05-23T03:59:11.420Z,33.75
2023-05-23T04:00:11.373Z,33.75
2023-05-23T04:01:11.337Z,39.38
2023-05-23T04:02:11.313Z,39.38
2023-05-23T04:03:11.322Z,45.00
2023-05-23T04:04:11.240Z,45.00
2023-05-23T04:05:11.156Z,50.63
2023-05-23T04:06:12.332Z,50.63
2023-05-23T04:07:11.082Z,56.25
2023-05-23T04:08:11.040Z,56.25
2023-05-23T04:09:10.996Z,61.88
2023-05-23T04:10:10.969Z,61.88
2023-05-23T04:11:10.905Z,67.50
2023-05-23T04:12:10.870Z,67.50
2023-05-23T04:13:10.865Z,73.13
2023-05-23T04:14:10.831Z,73.13
2023-05-23T04:15:10.773Z,73.13
2023-05-23T04:16:10.747Z,78.75
2023-05-23T04:17:10.663Z,78.75
2023-05-23T04:18:10.622Z,78.75
2023-05-23T04:19:10.597Z,84.38
2023-05-23T04:20:10.535Z,84.38
2023-05-23T04:21:10.533Z,84.38
2023-05-23T04:22:10.461Z,90.00
2023-05-23T04:23:10.447Z,90.00
2023-05-23T04:24:10.375Z,90.00
2023-05-23T04:25:10.341Z,90.00
2023-05-23T04:26:10.300Z,95.63
2023-05-23T04:27:10.298Z,95.63
2023-05-23T04:28:10.210Z,101.25
2023-05-23T04:29:10.166Z,101.25
2023-05-23T04:30:10.177Z,106.88
2023-05-23T04:31:10.090Z,106.88
2023-05-23T04:32:10.049Z,112.50
2023-05-23T04:33:10.094Z,118.13
2023-05-23T04:34:09.969Z,123.75
2023-05-23T04:35:11.108Z,123.75
2023-05-23T04:36:09.884Z,129.38
2023-05-23T04:37:09.832Z,129.38
2023-05-23T04:38:09.797Z,135.00
2023-05-23T04:39:09.838Z,135.00
2023-05-23T04:40:09.754Z,140.63
2023-05-23T04:41:09.688Z,140.63
2023-05-23T04:42:09.644Z,146.25
2023-05-23T04:43:09.594Z,151.88
2023-05-23T04:44:09.546Z,157.50
2023-05-23T04:45:09.904Z,157.50
2023-05-23T04:46:09.468Z,163.13
2023-05-23T04:47:09.601Z,168.75
2023-05-23T04:48:09.393Z,163.13
2023-05-23T04:49:09.339Z,168.75
2023-05-23T04:50:09.297Z,174.38
2023-05-23T04:51:09.289Z,185.63
2023-05-23T04:52:09.214Z,191.25
2023-05-23T04:53:09.181Z,202.50
2023-05-23T04:54:09.142Z,208.13
2023-05-23T04:55:09.098Z,213.75
2023-05-23T04:56:09.050Z,219.38
2023-05-23T04:57:09.043Z,230.63
2023-05-23T04:58:08.973Z,241.88
2023-05-23T04:59:08.923Z,247.50
2023-05-23T05:00:08.902Z,258.75
2023-05-23T05:01:08.884Z,275.63
2023-05-23T05:02:08.804Z,286.88
2023-05-23T05:03:08.830Z,298.13
2023-05-23T05:04:08.790Z,309.38
2023-05-23T05:05:08.674Z,315.00
2023-05-23T05:06:08.641Z,326.25
2023-05-23T05:07:08.601Z,331.88
2023-05-23T05:08:08.549Z,348.75
2023-05-23T05:09:08.529Z,365.63
2023-05-23T05:10:08.468Z,376.88
2023-05-23T05:11:08.426Z,399.38
2023-05-23T05:12:08.392Z,399.38
2023-05-23T05:13:08.351Z,399.38
2023-05-23T05:14:08.310Z,399.38
2023-05-23T05:15:08.344Z,399.38
2023-05-23T05:16:08.223Z,393.75
2023-05-23T05:17:08.253Z,393.75
2023-05-23T05:18:08.225Z,410.63
2023-05-23T05:19:08.146Z,410.63
2023-05-23T05:20:08.054Z,421.88
2023-05-23T05:21:08.043Z,438.75
2023-05-23T05:22:07.980Z,455.63
2023-05-23T05:23:07.928Z,466.88
2023-05-23T05:24:07.892Z,466.88
2023-05-23T05:25:07.898Z,450.00
2023-05-23T05:26:07.810Z,421.88
2023-05-23T05:27:07.779Z,393.75
2023-05-23T05:28:07.742Z,365.63
2023-05-23T05:29:07.688Z,348.75
2023-05-23T05:30:07.654Z,343.13
2023-05-23T05:31:07.946Z,354.38
2023-05-23T05:32:07.563Z,371.25
2023-05-23T05:33:07.583Z,388.13
2023-05-23T05:34:07.489Z,410.63
2023-05-23T05:35:07.446Z,433.13
2023-05-23T05:36:07.413Z,455.63
2023-05-23T05:37:07.467Z,472.50
2023-05-23T05:38:07.329Z,495.00
2023-05-23T05:39:07.287Z,523.13
2023-05-23T05:40:07.248Z,545.63
2023-05-23T05:41:09.089Z,562.50
2023-05-23T05:42:07.169Z,573.75
2023-05-23T05:43:07.349Z,579.38
2023-05-23T05:44:07.085Z,585.00
2023-05-23T05:45:07.038Z,573.75
2023-05-23T05:46:07.019Z,551.25
2023-05-23T05:47:06.957Z,506.25
2023-05-23T05:48:06.968Z,483.75
2023-05-23T05:49:06.940Z,461.25
2023-05-23T05:50:06.842Z,450.00
2023-05-23T05:51:06.806Z,438.75
2023-05-23T05:52:06.758Z,421.88
2023-05-23T05:53:06.723Z,405.00
2023-05-23T05:54:06.692Z,382.50
2023-05-23T05:55:06.841Z,360.00
2023-05-23T05:56:06.604Z,343.13
2023-05-23T05:57:06.564Z,331.88
2023-05-23T05:58:06.523Z,331.88
2023-05-23T05:59:06.499Z,326.25
2023-05-23T06:03:48.961Z,354.38
2023-05-23T06:04:48.063Z,365.63
2023-05-23T06:05:46.817Z,371.25
2023-05-23T06:06:47.033Z,393.75
2023-05-23T06:07:46.719Z,399.38
2023-05-23T06:08:49.113Z,410.63
2023-05-23T06:09:46.627Z,421.88
2023-05-23T06:10:46.873Z,433.13
2023-05-23T06:11:46.548Z,438.75
2023-05-23T06:12:46.677Z,444.38
2023-05-23T06:13:46.664Z,461.25
2023-05-23T06:14:46.419Z,461.25
2023-05-23T06:15:46.382Z,472.50
2023-05-23T06:16:47.559Z,478.13
2023-05-23T06:17:46.340Z,495.00
2023-05-23T06:18:48.602Z,511.88
2023-05-23T06:19:46.591Z,523.13
2023-05-23T06:20:46.211Z,540.00
2023-05-23T06:21:46.153Z,556.88
2023-05-23T06:22:46.347Z,579.38
2023-05-23T06:23:46.075Z,601.88
2023-05-23T06:24:46.146Z,624.38
2023-05-23T06:25:46.023Z,635.63
2023-05-23T06:26:45.941Z,641.25
2023-05-23T06:27:48.218Z,635.63
2023-05-23T06:28:45.884Z,641.25
2023-05-23T06:29:45.981Z,641.25
2023-05-23T06:30:45.775Z,641.25
2023-05-23T06:31:48.131Z,663.75
2023-05-23T06:32:45.771Z,669.38
2023-05-23T06:33:45.805Z,680.63
2023-05-23T06:34:45.622Z,691.88
2023-05-23T06:35:45.816Z,708.75
2023-05-23T06:36:45.533Z,720.00
2023-05-23T06:37:45.543Z,725.63
2023-05-23T06:38:46.861Z,720.00
2023-05-23T06:39:45.415Z,720.00
2023-05-23T06:40:45.639Z,731.25
2023-05-23T06:41:45.338Z,720.00
2023-05-23T06:42:45.457Z,714.38
2023-05-23T06:43:45.253Z,697.50
2023-05-23T06:44:45.488Z,680.63
2023-05-23T06:45:45.218Z,663.75
2023-05-23T06:46:45.279Z,658.13
2023-05-23T06:47:45.145Z,675.00
2023-05-23T06:48:45.065Z,697.50
2023-05-23T06:49:45.021Z,714.38
2023-05-23T06:50:45.309Z,703.13
2023-05-23T06:51:44.972Z,691.88
2023-05-23T06:52:45.115Z,686.25
2023-05-23T06:53:44.859Z,686.25
2023-05-23T06:54:44.822Z,680.63
2023-05-23T06:55:44.797Z,680.63
2023-05-23T06:56:44.945Z,675.00
2023-05-23T06:57:44.700Z,658.13
2023-05-23T06:58:46.526Z,635.63
2023-05-23T06:59:44.626Z,618.75
2023-05-23T07:00:44.627Z,613.13
2023-05-23T07:01:44.775Z,624.38
2023-05-23T07:02:44.755Z,658.13
2023-05-23T07:03:44.690Z,703.13
2023-05-23T07:04:44.456Z,753.75
2023-05-23T07:05:44.445Z,787.50
2023-05-23T07:06:44.379Z,793.13
2023-05-23T07:07:44.534Z,781.88
2023-05-23T07:08:44.311Z,765.00
2023-05-23T07:09:44.324Z,759.38
2023-05-23T07:10:44.207Z,770.63
2023-05-23T07:11:44.394Z,787.50
2023-05-23T07:12:44.138Z,798.75
2023-05-23T07:13:44.272Z,810.00
2023-05-23T07:14:44.040Z,815.63
2023-05-23T07:15:45.193Z,821.25
2023-05-23T07:16:44.016Z,826.88
2023-05-23T07:17:44.046Z,821.25
2023-05-23T07:18:45.002Z,815.63
2023-05-23T07:19:43.844Z,810.00
2023-05-23T07:20:43.992Z,804.38
2023-05-23T07:21:43.772Z,804.38
2023-05-23T07:22:45.035Z,810.00
2023-05-23T07:23:43.703Z,832.50
2023-05-23T07:25:06.755Z,866.25
2023-05-23T07:25:50.289Z,894.38
2023-05-23T07:26:43.572Z,922.50
2023-05-23T07:27:43.633Z,956.25
2023-05-23T07:28:43.888Z,978.75
2023-05-23T07:29:43.455Z,1012.50
2023-05-23T07:30:44.600Z,1051.88
2023-05-23T07:31:43.395Z,1080.00
2023-05-23T07:32:43.481Z,1119.38
2023-05-23T07:33:43.316Z,1119.38
2023-05-23T07:34:43.334Z,1125.00
2023-05-23T07:35:43.318Z,1147.50
2023-05-23T07:36:51.323Z,1186.88
2023-05-23T07:37:51.364Z,1220.63
2023-05-23T07:38:50.907Z,1248.75
2023-05-23T07:39:51.451Z,1288.13
2023-05-23T07:40:43.299Z,1310.63
2023-05-23T07:41:43.328Z,1350.00
2023-05-23T07:42:42.991Z,1378.13
2023-05-23T07:43:43.155Z,1411.88
2023-05-23T07:44:42.895Z,1456.88
2023-05-23T07:45:42.840Z,1462.50
2023-05-23T07:46:42.898Z,1462.50
2023-05-23T07:47:42.918Z,1546.88
2023-05-23T07:48:42.729Z,1417.50
2023-05-23T07:49:42.870Z,1310.63
2023-05-23T07:50:42.805Z,1271.25
2023-05-23T07:51:42.621Z,1158.75
2023-05-23T07:52:44.748Z,1113.75
2023-05-23T07:53:42.752Z,1147.50
2023-05-23T07:54:42.715Z,1130.63
2023-05-23T07:55:42.459Z,1108.13
2023-05-23T07:56:43.582Z,1113.75
2023-05-23T07:57:42.384Z,1158.75
2023-05-23T07:58:42.530Z,1209.38
2023-05-23T07:59:42.382Z,1192.50
2023-05-23T08:00:42.433Z,1074.38
2023-05-23T08:01:42.330Z,933.75
2023-05-23T08:02:43.825Z,849.38
2023-05-23T08:03:44.096Z,804.38
2023-05-23T08:04:42.882Z,770.63
2023-05-23T08:05:43.281Z,748.13
2023-05-23T08:06:48.663Z,714.38
2023-05-23T08:07:42.024Z,686.25
2023-05-23T08:08:41.986Z,686.25
2023-05-23T08:09:41.972Z,680.63
2023-05-23T08:10:42.140Z,663.75
2023-05-23T08:11:41.875Z,618.75
2023-05-23T08:12:42.061Z,573.75
2023-05-23T08:13:43.110Z,551.25
2023-05-23T08:14:50.433Z,517.50
2023-05-23T08:15:41.716Z,500.63
2023-05-23T08:17:04.993Z,489.38
2023-05-23T08:17:41.747Z,489.38
2023-05-23T08:18:41.721Z,472.50
2023-05-23T08:19:41.694Z,461.25
2023-05-23T08:20:41.796Z,461.25
2023-05-23T08:21:41.897Z,483.75
2023-05-23T08:22:41.495Z,489.38
2023-05-23T08:23:41.505Z,495.00
2023-05-23T08:24:41.404Z,495.00
2023-05-23T08:25:41.505Z,511.88
2023-05-23T08:26:41.308Z,540.00
2023-05-23T08:27:41.293Z,601.88
2023-05-23T08:28:41.531Z,658.13
2023-05-23T08:29:41.499Z,742.50
2023-05-23T08:30:41.532Z,838.13
2023-05-23T08:31:42.669Z,956.25
2023-05-23T08:32:41.228Z,1085.63
2023-05-23T08:33:41.047Z,1198.13
2023-05-23T08:34:41.164Z,1243.13
2023-05-23T08:35:40.991Z,1282.50
2023-05-23T08:36:40.970Z,1344.38
2023-05-23T08:37:40.985Z,1428.75
2023-05-23T08:38:40.856Z,1546.88
2023-05-23T08:39:42.253Z,1732.50
2023-05-23T08:40:40.975Z,1946.25
2023-05-23T08:41:40.817Z,2120.63
2023-05-23T08:42:40.776Z,2266.88
2023-05-23T08:43:40.697Z,2283.75
2023-05-23T08:44:41.068Z,2278.13
2023-05-23T08:45:40.590Z,2340.00
2023-05-23T08:46:41.710Z,2593.13
2023-05-23T08:47:40.549Z,2531.25
2023-05-23T08:48:41.688Z,2131.88
2023-05-23T08:49:40.455Z,1828.13
2023-05-23T08:50:40.663Z,1738.13
2023-05-23T08:51:40.370Z,1698.75
2023-05-23T08:52:40.689Z,1710.00
2023-05-23T08:53:40.299Z,1805.63
2023-05-23T08:54:40.519Z,2109.38
2023-05-23T08:55:40.468Z,2193.75
2023-05-23T08:56:40.309Z,2998.13
2023-05-23T08:57:40.186Z,3358.13
2023-05-23T08:58:40.314Z,3864.38
2023-05-23T08:59:40.076Z,2182.50
2023-05-23T09:00:40.404Z,1580.63
2023-05-23T09:01:40.191Z,1209.38
2023-05-23T09:02:41.469Z,1119.38
2023-05-23T09:03:39.941Z,1040.63
2023-05-23T09:04:40.153Z,961.88
2023-05-23T09:05:39.912Z,922.50
2023-05-23T09:06:39.833Z,900.00
2023-05-23T09:07:39.976Z,871.88
2023-05-23T09:08:39.863Z,838.13
2023-05-23T09:09:39.782Z,821.25
2023-05-23T09:10:39.881Z,815.63
2023-05-23T09:11:39.835Z,821.25
2023-05-23T09:12:39.698Z,804.38
2023-05-23T09:13:39.823Z,793.13
2023-05-23T09:14:39.731Z,781.88
2023-05-23T09:15:39.621Z,770.63
2023-05-23T09:16:39.582Z,759.38
2023-05-23T09:17:39.478Z,753.75
2023-05-23T09:18:39.410Z,753.75
2023-05-23T09:19:40.545Z,781.88
2023-05-23T09:20:39.512Z,804.38
2023-05-23T09:21:40.523Z,815.63
2023-05-23T09:22:39.263Z,815.63
2023-05-23T09:23:39.255Z,810.00
2023-05-23T09:24:39.201Z,804.38
2023-05-23T09:25:39.206Z,787.50
2023-05-23T09:26:39.330Z,793.13
2023-05-23T09:27:39.467Z,810.00
2023-05-23T09:29:00.204Z,855.00
2023-05-23T09:29:39.042Z,939.38
2023-05-23T09:30:39.335Z,1040.63
2023-05-23T09:31:38.992Z,1136.25
2023-05-23T09:32:39.185Z,1226.25
2023-05-23T09:33:38.861Z,1237.50
2023-05-23T09:34:38.823Z,1192.50
2023-05-23T09:35:38.803Z,1175.63
2023-05-23T09:36:38.962Z,1198.13
2023-05-23T09:37:38.795Z,1248.75
2023-05-23T09:38:39.836Z,1282.50
2023-05-23T09:39:38.691Z,1260.00
2023-05-23T09:40:38.687Z,1198.13
2023-05-23T09:41:38.562Z,1141.88
2023-05-23T09:42:38.590Z,1125.00
2023-05-23T09:43:38.511Z,1130.63
2023-05-23T09:44:39.634Z,1153.13
2023-05-23T09:45:38.414Z,1175.63
2023-05-23T09:46:38.444Z,1226.25
2023-05-23T09:47:39.506Z,1276.88
2023-05-23T09:48:38.300Z,1811.25
2023-05-23T09:49:40.702Z,1676.25
2023-05-23T09:50:38.349Z,1721.25
2023-05-23T09:51:38.222Z,1721.25
2023-05-23T09:52:38.218Z,1659.38
2023-05-23T09:53:39.299Z,1575.00
2023-05-23T09:54:38.088Z,1440.00
2023-05-23T09:55:39.103Z,1344.38
2023-05-23T09:56:38.007Z,1276.88
2023-05-23T09:57:37.962Z,1282.50
2023-05-23T09:58:38.306Z,1288.13
2023-05-23T09:59:37.886Z,1271.25
2023-05-23T10:00:39.041Z,1293.75
2023-05-23T10:01:37.902Z,1378.13
2023-05-23T10:02:37.807Z,1445.63
2023-05-23T10:03:37.767Z,1456.88
2023-05-23T10:04:38.117Z,1485.00
2023-05-23T10:05:37.700Z,1546.88
2023-05-23T10:06:41.226Z,1575.00
2023-05-23T10:07:37.622Z,1665.00
2023-05-23T10:08:37.552Z,1906.88
2023-05-23T10:09:38.636Z,2671.88
2023-05-23T10:10:37.594Z,4235.63
2023-05-23T10:11:37.480Z,3262.50
2023-05-23T10:12:39.850Z,4550.63
2023-05-23T10:13:37.396Z,5529.38
2023-05-23T10:14:37.415Z,2835.00
2023-05-23T10:15:37.304Z,2435.63
2023-05-23T10:16:37.449Z,2351.25
2023-05-23T10:17:37.239Z,3971.25
2023-05-23T10:18:37.433Z,2745.00
2023-05-23T10:19:37.228Z,2750.63
2023-05-23T10:20:37.238Z,2278.13
2023-05-23T10:21:37.088Z,2030.63
2023-05-23T10:22:37.250Z,1856.25
2023-05-23T10:23:37.014Z,1777.50
2023-05-23T10:24:39.313Z,1693.13
2023-05-23T10:25:36.962Z,1710.00
2023-05-23T10:26:37.096Z,1693.13
2023-05-23T10:27:36.875Z,1670.63
2023-05-23T10:28:37.098Z,1552.50
2023-05-23T10:29:36.830Z,1518.75
2023-05-23T10:30:42.573Z,1473.75
2023-05-23T10:31:36.865Z,1479.38
2023-05-23T10:32:36.948Z,1546.88
2023-05-23T10:33:36.680Z,1558.13
2023-05-23T10:34:37.764Z,1530.00
2023-05-23T10:35:36.634Z,1535.63
2023-05-23T10:36:36.563Z,1479.38
2023-05-23T10:37:36.547Z,1462.50
2023-05-23T10:40:20.910Z,1372.50
2023-05-23T10:41:26.455Z,1333.13
2023-05-23T10:42:15.977Z,1316.25
2023-05-23T10:43:28.683Z,1383.75
2023-05-23T10:44:07.710Z,1462.50
2023-05-23T10:45:07.576Z,1586.25
2023-05-23T10:46:07.795Z,1642.50
2023-05-23T10:47:07.538Z,1575.00
2023-05-23T10:48:07.872Z,1575.00
2023-05-23T10:49:07.448Z,1608.75
2023-05-23T10:50:07.568Z,1518.75
2023-05-23T10:51:07.362Z,1417.50
2023-05-23T10:52:07.626Z,1338.75
2023-05-23T10:53:07.285Z,1299.38
2023-05-23T10:54:07.578Z,1248.75
2023-05-23T10:55:07.218Z,1220.63
2023-05-23T10:56:07.387Z,1237.50
2023-05-23T10:57:07.152Z,1310.63
2023-05-23T10:58:07.403Z,1389.38
2023-05-23T10:59:28.507Z,1411.88
2023-05-23T11:00:07.056Z,1530.00
2023-05-23T11:01:07.221Z,1912.50
2023-05-23T11:02:07.023Z,6013.13
2023-05-23T11:03:07.118Z,5608.13
2023-05-23T11:04:06.940Z,5625.00
2023-05-23T11:05:06.962Z,6300.00
2023-05-23T11:06:07.068Z,6609.38
2023-05-23T11:07:06.803Z,6131.25
2023-05-23T11:08:07.910Z,5855.63
2023-05-23T11:09:07.802Z,5715.00
2023-05-23T11:10:06.699Z,5467.50
2023-05-23T11:11:06.701Z,5720.63
2023-05-23T11:12:06.910Z,6339.38
2023-05-23T11:13:06.627Z,6637.50
2023-05-23T11:14:06.700Z,6361.88
2023-05-23T11:15:06.552Z,6069.38
2023-05-23T11:16:06.851Z,5855.63
2023-05-23T11:17:06.479Z,5861.25
2023-05-23T11:18:06.774Z,5928.75
2023-05-23T11:19:06.471Z,6271.88
2023-05-23T11:20:06.559Z,6676.88
2023-05-23T11:21:06.385Z,6643.13
2023-05-23T11:22:06.331Z,6558.75
2023-05-23T11:23:06.570Z,6660.00
2023-05-23T11:24:06.292Z,6716.25
2023-05-23T11:25:06.373Z,6868.13
2023-05-23T11:26:06.433Z,6806.25
2023-05-23T11:27:06.390Z,6727.50
2023-05-23T11:28:06.176Z,6671.25
2023-05-23T11:29:06.401Z,6435.00
2023-05-23T11:30:06.135Z,6024.38
2023-05-23T11:31:06.215Z,6125.63
2023-05-23T11:32:06.143Z,6581.25
2023-05-23T11:33:06.081Z,6598.13
2023-05-23T11:34:06.029Z,3628.13
2023-05-23T11:35:07.691Z,5878.13
2023-05-23T11:36:05.975Z,2165.63
2023-05-23T11:37:06.052Z,2075.63
2023-05-23T11:38:05.930Z,2913.75
2023-05-23T11:39:05.908Z,2013.75
2023-05-23T11:40:05.885Z,2176.88
2023-05-23T11:41:08.138Z,2109.38
2023-05-23T11:42:05.823Z,2401.88
2023-05-23T11:43:06.927Z,2632.50
2023-05-23T11:44:05.773Z,4798.13
2023-05-23T11:45:05.916Z,3307.50
2023-05-23T11:46:06.007Z,5231.25
2023-05-23T11:47:05.928Z,2576.25
2023-05-23T11:48:05.711Z,2176.88
2023-05-23T11:49:05.752Z,2160.00
2023-05-23T11:50:05.740Z,2345.63
2023-05-23T11:51:05.674Z,1957.50
2023-05-23T11:52:05.759Z,2216.25
2023-05-23T11:53:05.559Z,1513.13
2023-05-23T11:54:06.603Z,1327.50
2023-05-23T11:55:05.466Z,1299.38
2023-05-23T11:56:05.436Z,1333.13
2023-05-23T11:57:05.653Z,1389.38
2023-05-23T11:58:05.598Z,1445.63
2023-05-23T11:59:05.345Z,1518.75
2023-05-23T12:00:06.436Z,1597.50
2023-05-23T12:01:05.283Z,1631.25
2023-05-23T12:02:05.427Z,1597.50
2023-05-23T12:03:05.801Z,1552.50
2023-05-23T12:04:05.501Z,1811.25
2023-05-23T12:05:05.156Z,4961.25
2023-05-23T12:06:05.451Z,1648.13
2023-05-23T12:07:06.331Z,1310.63
2023-05-23T12:08:05.318Z,1153.13
2023-05-23T12:09:05.284Z,1057.50
2023-05-23T12:10:04.988Z,945.00
2023-05-23T12:11:05.075Z,753.75
2023-05-23T12:12:04.929Z,641.25
2023-05-23T12:13:04.897Z,601.88
2023-05-23T12:14:04.890Z,590.63
2023-05-23T12:15:05.109Z,618.75
2023-05-23T12:16:04.889Z,646.88
2023-05-23T12:17:05.938Z,663.75
2023-05-23T12:18:05.347Z,663.75
2023-05-23T12:19:05.222Z,646.88
2023-05-23T12:20:05.755Z,630.00
2023-05-23T12:21:04.634Z,601.88
2023-05-23T12:22:05.780Z,562.50
2023-05-23T12:23:04.572Z,545.63
2023-05-23T12:24:04.763Z,562.50
2023-05-23T12:25:04.532Z,607.50
2023-05-23T12:26:04.578Z,686.25
2023-05-23T12:27:04.416Z,753.75
2023-05-23T12:28:04.590Z,793.13
2023-05-23T12:29:04.390Z,815.63
2023-05-23T12:30:06.307Z,849.38
2023-05-23T12:31:04.360Z,883.13
2023-05-23T12:32:05.469Z,916.88
2023-05-23T12:33:04.256Z,973.13
2023-05-23T12:34:04.428Z,1006.88
2023-05-23T12:35:04.136Z,1029.38
2023-05-23T12:36:05.330Z,1018.13
2023-05-23T12:37:18.184Z,1006.88
2023-05-23T12:38:04.034Z,984.38
2023-05-23T12:39:04.480Z,950.63
2023-05-23T12:40:03.966Z,945.00
2023-05-23T12:41:04.077Z,950.63